createdAt,value
2022-12-28T00:03:49.235Z,1.45
2022-12-28T00:08:55.700Z,1.40
2022-12-28T00:13:59.427Z,1.38
2022-12-28T00:19:05.323Z,1.33
2022-12-28T00:24:08.194Z,1.30
2022-12-28T00:29:09.927Z,1.28
2022-12-28T00:34:12.316Z,1.27
2022-12-28T00:39:15.606Z,1.25
2022-12-28T00:44:17.270Z,1.22
2022-12-28T00:49:18.936Z,1.11
2022-12-28T00:54:20.545Z,1.04
2022-12-28T00:59:22.132Z,1.00
2022-12-28T01:04:23.797Z,0.98
2022-12-28T01:09:25.424Z,0.92
2022-12-28T01:14:27.088Z,0.87
2022-12-28T01:19:28.755Z,0.78
2022-12-28T01:24:33.106Z,0.74
2022-12-28T01:29:35.175Z,0.73
2022-12-28T01:34:36.838Z,0.70
2022-12-28T01:39:38.685Z,0.69
2022-12-28T01:44:43.762Z,0.57
2022-12-28T01:49:51.683Z,0.53
2022-12-28T01:55:00.963Z,0.52
2022-12-28T02:00:11.645Z,0.43
2022-12-28T02:05:22.636Z,0.38
2022-12-28T02:10:40.637Z,0.36
2022-12-28T02:15:47.572Z,0.37
2022-12-28T02:21:10.269Z,0.32
2022-12-28T02:26:29.554Z,0.20
2022-12-28T02:32:08.777Z,0.20
2022-12-28T02:37:19.453Z,0.17
2022-12-28T02:42:24.305Z,0.09
2022-12-28T02:47:44.753Z,0.08
2022-12-28T02:53:03.698Z,0.05
2022-12-28T02:58:35.781Z,-0.06
2022-12-28T03:03:57.505Z,-0.09
2022-12-28T03:09:26.094Z,-0.16
2022-12-28T03:14:40.987Z,-0.18
2022-12-28T03:20:16.040Z,-0.20
2022-12-28T03:25:41.161Z,-0.20
2022-12-28T03:31:06.429Z,-0.20
2022-12-28T03:36:27.160Z,-0.29
2022-12-28T03:41:34.774Z,-0.29
2022-12-28T03:47:00.430Z,-0.29
2022-12-28T03:52:03.401Z,-0.31
2022-12-28T03:57:05.451Z,-0.36
2022-12-28T04:02:12.235Z,-0.37
2022-12-28T04:07:15.480Z,-0.38
2022-12-28T04:12:17.119Z,-0.39
2022-12-28T04:17:39.016Z,-0.36
2022-12-28T04:22:40.625Z,-0.35
2022-12-28T04:27:43.396Z,-0.39
2022-12-28T04:33:01.140Z,-0.47
2022-12-28T04:38:03.408Z,-0.49
2022-12-28T04:43:05.187Z,-0.55
2022-12-28T04:48:06.798Z,-0.60
2022-12-28T04:53:08.456Z,-0.65
2022-12-28T04:58:10.062Z,-0.76
2022-12-28T05:03:11.679Z,-0.77
2022-12-28T05:08:14.425Z,-0.83
2022-12-28T05:13:16.051Z,-0.87
2022-12-28T05:18:17.850Z,-0.88
2022-12-28T05:23:19.471Z,-0.93
2022-12-28T05:28:21.130Z,-0.94
2022-12-28T05:33:22.912Z,-0.96
2022-12-28T05:38:24.558Z,-0.98
2022-12-28T05:43:26.390Z,-0.95
2022-12-28T05:48:31.778Z,-1.05
2022-12-28T05:53:33.886Z,-1.08
2022-12-28T05:58:35.553Z,-1.10
2022-12-28T06:03:38.168Z,-1.15
2022-12-28T06:08:40.961Z,-1.10
2022-12-28T06:13:42.907Z,-1.10
2022-12-28T06:18:45.497Z,-1.11
2022-12-28T06:23:47.809Z,-1.22
2022-12-28T06:28:49.827Z,-1.17
2022-12-28T06:33:57.190Z,-1.23
2022-12-28T06:39:01.360Z,-1.18
2022-12-28T06:44:07.199Z,-1.16
2022-12-28T06:49:09.146Z,-1.18
2022-12-28T06:54:11.323Z,-1.16
2022-12-28T06:59:12.936Z,-1.08
2022-12-28T07:04:14.777Z,-1.02
2022-12-28T07:09:16.941Z,-0.98
2022-12-28T07:14:19.032Z,-0.92
2022-12-28T07:19:20.633Z,-0.88
2022-12-28T07:24:22.423Z,-0.75
2022-12-28T07:29:24.719Z,-0.58
2022-12-28T07:34:26.459Z,-0.43
2022-12-28T07:39:28.412Z,-0.34
2022-12-28T07:44:31.451Z,-0.23
2022-12-28T07:49:35.808Z,-0.10
2022-12-28T07:54:37.403Z,0.02
2022-12-28T07:59:39.173Z,0.07
2022-12-28T08:04:40.796Z,0.20
2022-12-28T08:09:42.385Z,0.38
2022-12-28T08:14:43.994Z,0.53
2022-12-28T08:19:45.583Z,0.63
2022-12-28T08:24:47.161Z,0.74
2022-12-28T08:29:49.062Z,0.81
2022-12-28T08:34:50.638Z,0.92
2022-12-28T08:39:52.242Z,1.05
2022-12-28T08:44:53.852Z,1.19
2022-12-28T08:49:55.458Z,1.29
2022-12-28T08:54:57.073Z,1.41
2022-12-28T08:59:58.664Z,1.53
2022-12-28T09:05:00.276Z,1.61
2022-12-28T09:10:01.992Z,1.75
2022-12-28T09:15:03.871Z,1.85
2022-12-28T09:20:06.078Z,2.02
2022-12-28T09:25:07.843Z,2.14
2022-12-28T09:30:09.859Z,2.32
2022-12-28T09:35:11.456Z,2.36
2022-12-28T09:40:13.112Z,2.42
2022-12-28T09:45:26.642Z,2.62
2022-12-28T09:50:35.025Z,2.66
2022-12-28T09:55:39.832Z,2.87
2022-12-28T10:00:49.413Z,2.86
2022-12-28T10:05:51.778Z,2.91
2022-12-28T10:10:59.492Z,3.08
2022-12-28T10:16:01.330Z,3.24
2022-12-28T10:21:04.995Z,3.32
2022-12-28T10:26:06.914Z,3.31
2022-12-28T10:31:11.200Z,3.37
2022-12-28T10:36:15.572Z,3.43
2022-12-28T10:41:20.791Z,3.37
2022-12-28T10:46:24.292Z,3.37
2022-12-28T10:51:28.420Z,3.49
2022-12-28T10:56:31.936Z,3.64
2022-12-28T11:01:33.733Z,3.66
2022-12-28T11:06:50.613Z,3.87
2022-12-28T11:11:55.446Z,3.98
2022-12-28T11:16:57.226Z,4.00
2022-12-28T11:21:58.898Z,3.95
2022-12-28T11:27:00.488Z,4.00
2022-12-28T11:32:16.131Z,4.09
2022-12-28T11:37:18.003Z,4.26
2022-12-28T11:42:41.940Z,4.42
2022-12-28T11:47:45.671Z,4.81
2022-12-28T11:52:50.118Z,5.05
2022-12-28T11:57:52.062Z,5.15
2022-12-28T12:03:01.310Z,5.44
2022-12-28T12:08:23.232Z,5.61
2022-12-28T12:13:27.963Z,5.76
2022-12-28T12:18:30.602Z,5.90
2022-12-28T12:23:40.428Z,6.03
2022-12-28T12:28:51.498Z,6.07
2022-12-28T12:34:01.658Z,6.14
2022-12-28T12:39:29.603Z,6.15
2022-12-28T12:44:57.737Z,6.04
2022-12-28T12:50:02.590Z,5.97
2022-12-28T12:55:04.180Z,6.05
2022-12-28T13:00:16.623Z,6.11
2022-12-28T13:05:26.796Z,6.03
2022-12-28T13:10:40.674Z,6.17
2022-12-28T13:15:44.056Z,6.19
2022-12-28T13:21:01.129Z,6.20
2022-12-28T13:26:03.364Z,6.44
2022-12-28T13:31:07.865Z,6.52
2022-12-28T13:36:09.597Z,6.59
2022-12-28T13:41:21.526Z,6.46
2022-12-28T13:46:24.746Z,6.43
2022-12-28T13:51:26.796Z,6.43
2022-12-28T13:56:31.256Z,6.34
2022-12-28T14:01:40.812Z,6.23
2022-12-28T14:06:44.163Z,6.17
2022-12-28T14:11:46.360Z,6.04
2022-12-28T14:16:49.330Z,5.91
2022-12-28T14:21:51.453Z,5.81
2022-12-28T14:26:59.690Z,5.66
2022-12-28T14:32:04.434Z,5.57
2022-12-28T14:37:09.847Z,5.46
2022-12-28T14:42:22.813Z,5.28
2022-12-28T14:47:44.807Z,5.18
2022-12-28T14:52:51.144Z,5.09
2022-12-28T14:58:04.859Z,4.98
2022-12-28T15:03:21.871Z,4.85
2022-12-28T15:08:23.538Z,4.71
2022-12-28T15:13:26.620Z,4.62
2022-12-28T15:18:30.846Z,4.48
2022-12-28T15:23:32.562Z,4.38
2022-12-28T15:28:35.963Z,4.22
2022-12-28T15:33:37.618Z,4.14
2022-12-28T15:38:39.309Z,4.07
2022-12-28T15:43:40.948Z,3.99
2022-12-28T15:48:47.468Z,3.93
2022-12-28T15:53:49.421Z,3.84
2022-12-28T15:58:53.864Z,3.78
2022-12-28T16:03:57.844Z,3.75
2022-12-28T16:09:01.302Z,3.70
2022-12-28T16:14:06.043Z,3.63
2022-12-28T16:19:12.542Z,3.63
2022-12-28T16:24:14.166Z,3.63
2022-12-28T16:29:16.197Z,3.65
2022-12-28T16:34:17.847Z,3.75
2022-12-28T16:39:20.203Z,3.78
2022-12-28T16:44:23.604Z,3.80
2022-12-28T16:49:26.795Z,3.74
2022-12-28T16:54:28.483Z,3.69
2022-12-28T16:59:30.159Z,3.67
2022-12-28T17:04:31.746Z,3.64
2022-12-28T17:09:33.575Z,3.57
2022-12-28T17:14:38.044Z,3.56
2022-12-28T17:19:39.910Z,3.56
2022-12-28T17:24:41.676Z,3.61
2022-12-28T17:29:43.300Z,3.68
2022-12-28T17:34:45.237Z,3.74
2022-12-28T17:39:47.040Z,3.70
2022-12-28T17:44:48.753Z,3.65
2022-12-28T17:49:50.406Z,3.65
2022-12-28T17:54:52.252Z,3.59
2022-12-28T17:59:53.895Z,3.51
2022-12-28T18:04:55.493Z,3.41
2022-12-28T18:09:57.084Z,3.35
2022-12-28T18:14:58.696Z,3.28
2022-12-28T18:20:00.315Z,3.10
2022-12-28T18:25:01.930Z,2.97
2022-12-28T18:30:04.039Z,2.86
2022-12-28T18:35:06.280Z,2.79
2022-12-28T18:40:08.769Z,2.63
2022-12-28T18:45:10.979Z,2.56
2022-12-28T18:50:12.578Z,2.49
2022-12-28T18:55:15.005Z,2.43
2022-12-28T19:00:16.998Z,2.29
2022-12-28T19:05:18.600Z,2.21
2022-12-28T19:10:21.210Z,2.13
2022-12-28T19:15:22.980Z,2.08
2022-12-28T19:20:24.763Z,2.00
2022-12-28T19:25:26.567Z,1.94
2022-12-28T19:30:28.368Z,1.89
2022-12-28T19:35:29.947Z,1.81
2022-12-28T19:40:31.891Z,1.80
2022-12-28T19:45:33.564Z,1.78
2022-12-28T19:50:35.753Z,1.70
2022-12-28T19:55:37.380Z,1.75
2022-12-28T20:00:39.049Z,1.69
2022-12-28T20:05:40.921Z,1.64
2022-12-28T20:10:42.529Z,1.57
2022-12-28T20:15:44.176Z,1.50
2022-12-28T20:21:17.908Z,1.45
2022-12-28T20:26:07.802Z,1.40
2022-12-28T20:31:12.556Z,1.32
2022-12-28T20:36:18.704Z,1.24
2022-12-28T20:41:41.609Z,1.20
2022-12-28T20:46:44.109Z,1.20
2022-12-28T20:51:47.771Z,1.24
2022-12-28T20:56:54.824Z,1.22
2022-12-28T21:01:57.806Z,1.24
2022-12-28T21:06:59.532Z,1.27
2022-12-28T21:12:02.368Z,1.23
2022-12-28T21:17:03.973Z,1.21
2022-12-28T21:22:05.559Z,1.25
2022-12-28T21:27:07.185Z,1.37
2022-12-28T21:32:09.523Z,1.54
2022-12-28T21:37:30.231Z,1.58
2022-12-28T21:42:31.904Z,1.70
2022-12-28T21:47:34.680Z,1.81
2022-12-28T21:52:38.097Z,1.88
2022-12-28T21:57:39.974Z,1.89
2022-12-28T22:03:00.258Z,1.84
2022-12-28T22:08:21.837Z,1.92
2022-12-28T22:13:23.585Z,1.95
2022-12-28T22:23:47.461Z,1.83
2022-12-28T22:28:49.122Z,1.77
2022-12-28T22:33:51.578Z,1.75
2022-12-28T22:38:55.131Z,1.73
2022-12-28T22:43:56.801Z,1.66
2022-12-28T22:48:58.439Z,1.68
2022-12-28T22:54:00.078Z,1.71
2022-12-28T22:59:04.920Z,1.71
2022-12-28T23:04:07.778Z,1.69
2022-12-28T23:09:09.590Z,1.64
2022-12-28T23:14:39.633Z,1.64
2022-12-28T23:20:04.486Z,1.65
2022-12-28T23:25:24.970Z,1.67
2022-12-28T23:30:28.200Z,1.61
2022-12-28T23:35:29.822Z,1.51
2022-12-28T23:40:31.636Z,1.46
2022-12-28T23:45:34.828Z,1.39
2022-12-28T23:50:36.447Z,1.37
2022-12-28T23:55:38.043Z,1.36
